sensor_id;sensor_type;location;lat;lon;timestamp;temperature;humidity
70593;DHT22;58294;42.988;20.338;2023-03-01T00:00:15;205.50;1996.80
70593;DHT22;58294;42.988;20.338;2023-03-01T00:02:41;205.50;1996.80
70593;DHT22;58294;42.988;20.338;2023-03-01T00:05:06;205.60;1996.80
70593;DHT22;58294;42.988;20.338;2023-03-01T00:07:32;205.60;1996.80
70593;DHT22;58294;42.988;20.338;2023-03-01T00:09:58;205.60;1996.80
70593;DHT22;58294;42.988;20.338;2023-03-01T00:12:24;205.60;1996.80
70593;DHT22;58294;42.988;20.338;2023-03-01T00:14:49;205.60;1996.80
70593;DHT22;58294;42.988;20.338;2023-03-01T00:17:15;205.50;1971.20
70593;DHT22;58294;42.988;20.338;2023-03-01T00:19:40;205.50;1945.60
70593;DHT22;58294;42.988;20.338;2023-03-01T00:22:06;205.40;1971.20
70593;DHT22;58294;42.988;20.338;2023-03-01T00:24:31;205.40;1996.80
70593;DHT22;58294;42.988;20.338;2023-03-01T00:26:57;205.50;1996.80
70593;DHT22;58294;42.988;20.338;2023-03-01T00:29:24;205.50;1996.80
70593;DHT22;58294;42.988;20.338;2023-03-01T00:31:49;205.50;1996.80
70593;DHT22;58294;42.988;20.338;2023-03-01T00:34:15;205.50;1996.80
70593;DHT22;58294;42.988;20.338;2023-03-01T00:36:41;205.50;1996.80
70593;DHT22;58294;42.988;20.338;2023-03-01T00:39:09;205.50;1996.80
70593;DHT22;58294;42.988;20.338;2023-03-01T00:41:35;205.50;1971.20
70593;DHT22;58294;42.988;20.338;2023-03-01T00:44:01;205.50;1996.80
70593;DHT22;58294;42.988;20.338;2023-03-01T00:46:27;205.50;1996.80
70593;DHT22;58294;42.988;20.338;2023-03-01T00:48:52;205.50;1996.80
70593;DHT22;58294;42.988;20.338;2023-03-01T00:51:19;205.50;1996.80
70593;DHT22;58294;42.988;20.338;2023-03-01T00:53:45;205.50;1971.20
70593;DHT22;58294;42.988;20.338;2023-03-01T00:56:12;205.50;1971.20
70593;DHT22;58294;42.988;20.338;2023-03-01T00:58:38;205.50;1996.80
70593;DHT22;58294;42.988;20.338;2023-03-01T01:01:24;205.40;1971.20
70593;DHT22;58294;42.988;20.338;2023-03-01T01:04:03;205.40;1971.20
70593;DHT22;58294;42.988;20.338;2023-03-01T01:06:34;205.40;1971.20
70593;DHT22;58294;42.988;20.338;2023-03-01T01:09:00;205.40;1971.20
70593;DHT22;58294;42.988;20.338;2023-03-01T01:11:27;205.40;1996.80
70593;DHT22;58294;42.988;20.338;2023-03-01T01:13:53;205.40;1996.80
70593;DHT22;58294;42.988;20.338;2023-03-01T01:16:20;205.40;1996.80
70593;DHT22;58294;42.988;20.338;2023-03-01T01:18:46;205.40;1996.80
70593;DHT22;58294;42.988;20.338;2023-03-01T01:21:13;205.40;1996.80
70593;DHT22;58294;42.988;20.338;2023-03-01T01:23:39;205.40;1996.80
70593;DHT22;58294;42.988;20.338;2023-03-01T01:26:12;205.40;1996.80
70593;DHT22;58294;42.988;20.338;2023-03-01T01:28:38;205.50;1996.80
70593;DHT22;58294;42.988;20.338;2023-03-01T01:31:04;205.50;1996.80
70593;DHT22;58294;42.988;20.338;2023-03-01T01:33:29;205.40;1996.80
70593;DHT22;58294;42.988;20.338;2023-03-01T01:35:55;205.40;2022.40
70593;DHT22;58294;42.988;20.338;2023-03-01T01:38:20;205.50;2022.40
70593;DHT22;58294;42.988;20.338;2023-03-01T01:40:47;205.50;2022.40
70593;DHT22;58294;42.988;20.338;2023-03-01T01:43:21;205.50;1996.80
70593;DHT22;58294;42.988;20.338;2023-03-01T01:45:46;205.50;1996.80
70593;DHT22;58294;42.988;20.338;2023-03-01T01:48:13;205.50;1971.20
70593;DHT22;58294;42.988;20.338;2023-03-01T01:50:41;205.40;1996.80
70593;DHT22;58294;42.988;20.338;2023-03-01T01:53:11;205.40;1996.80
70593;DHT22;58294;42.988;20.338;2023-03-01T01:55:40;205.40;1971.20
70593;DHT22;58294;42.988;20.338;2023-03-01T01:58:06;205.40;1996.80
70593;DHT22;58294;42.988;20.338;2023-03-01T02:00:33;205.40;1996.80
70593;DHT22;58294;42.988;20.338;2023-03-01T02:02:59;205.40;1996.80
70593;DHT22;58294;42.988;20.338;2023-03-01T02:05:43;205.40;1996.80
70593;DHT22;58294;42.988;20.338;2023-03-01T02:08:10;205.40;1971.20
70593;DHT22;58294;42.988;20.338;2023-03-01T02:10:36;205.40;1996.80
70593;DHT22;58294;42.988;20.338;2023-03-01T02:13:02;205.40;1971.20
70593;DHT22;58294;42.988;20.338;2023-03-01T02:15:31;205.30;1996.80
70593;DHT22;58294;42.988;20.338;2023-03-01T02:17:57;205.30;1996.80
70593;DHT22;58294;42.988;20.338;2023-03-01T02:20:25;205.30;1996.80
70593;DHT22;58294;42.988;20.338;2023-03-01T02:22:52;205.30;1996.80
70593;DHT22;58294;42.988;20.338;2023-03-01T02:25:30;205.30;1996.80
70593;DHT22;58294;42.988;20.338;2023-03-01T02:28:04;205.30;2022.40
70593;DHT22;58294;42.988;20.338;2023-03-01T02:30:33;205.30;1996.80
70593;DHT22;58294;42.988;20.338;2023-03-01T02:33:00;205.30;1996.80
70593;DHT22;58294;42.988;20.338;2023-03-01T02:35:34;205.30;2022.40
70593;DHT22;58294;42.988;20.338;2023-03-01T02:38:00;205.40;1996.80
70593;DHT22;58294;42.988;20.338;2023-03-01T02:40:27;205.40;2022.40
70593;DHT22;58294;42.988;20.338;2023-03-01T02:42:54;205.40;2022.40
70593;DHT22;58294;42.988;20.338;2023-03-01T02:45:21;205.40;1996.80
70593;DHT22;58294;42.988;20.338;2023-03-01T02:47:47;205.40;2022.40
70593;DHT22;58294;42.988;20.338;2023-03-01T02:50:22;205.40;2022.40
70593;DHT22;58294;42.988;20.338;2023-03-01T02:55:24;205.50;2022.40
70593;DHT22;58294;42.988;20.338;2023-03-01T02:57:50;205.50;1996.80
70593;DHT22;58294;42.988;20.338;2023-03-01T03:00:17;205.50;1996.80
70593;DHT22;58294;42.988;20.338;2023-03-01T03:02:50;205.50;1996.80
70593;DHT22;58294;42.988;20.338;2023-03-01T03:05:17;205.40;1945.60
70593;DHT22;58294;42.988;20.338;2023-03-01T03:07:44;205.40;1971.20
70593;DHT22;58294;42.988;20.338;2023-03-01T03:10:15;205.40;1996.80
70593;DHT22;58294;42.988;20.338;2023-03-01T03:12:41;205.40;1996.80
70593;DHT22;58294;42.988;20.338;2023-03-01T03:15:07;205.30;1996.80
70593;DHT22;58294;42.988;20.338;2023-03-01T03:17:35;205.30;1971.20
70593;DHT22;58294;42.988;20.338;2023-03-01T03:20:01;205.30;1945.60
70593;DHT22;58294;42.988;20.338;2023-03-01T03:22:26;205.30;1996.80
70593;DHT22;58294;42.988;20.338;2023-03-01T03:24:54;205.30;1996.80
70593;DHT22;58294;42.988;20.338;2023-03-01T03:27:19;205.30;1996.80
70593;DHT22;58294;42.988;20.338;2023-03-01T03:29:45;205.30;2022.40
70593;DHT22;58294;42.988;20.338;2023-03-01T03:32:10;205.20;2022.40
70593;DHT22;58294;42.988;20.338;2023-03-01T03:34:36;205.20;1996.80
70593;DHT22;58294;42.988;20.338;2023-03-01T03:37:01;205.20;2022.40
70593;DHT22;58294;42.988;20.338;2023-03-01T03:39:27;205.20;2022.40
70593;DHT22;58294;42.988;20.338;2023-03-01T03:41:53;205.30;2022.40
70593;DHT22;58294;42.988;20.338;2023-03-01T03:44:19;205.30;1996.80
70593;DHT22;58294;42.988;20.338;2023-03-01T03:46:44;205.30;2022.40
70593;DHT22;58294;42.988;20.338;2023-03-01T03:49:10;205.30;2022.40
70593;DHT22;58294;42.988;20.338;2023-03-01T03:51:35;205.30;2022.40
70593;DHT22;58294;42.988;20.338;2023-03-01T03:54:01;205.30;1996.80
70593;DHT22;58294;42.988;20.338;2023-03-01T03:56:27;205.20;1971.20
70593;DHT22;58294;42.988;20.338;2023-03-01T03:58:52;205.20;2022.40
70593;DHT22;58294;42.988;20.338;2023-03-01T04:01:18;205.30;2022.40
70593;DHT22;58294;42.988;20.338;2023-03-01T04:03:43;205.30;2022.40
70593;DHT22;58294;42.988;20.338;2023-03-01T04:06:13;205.30;1996.80
70593;DHT22;58294;42.988;20.338;2023-03-01T04:08:38;205.30;2022.40
70593;DHT22;58294;42.988;20.338;2023-03-01T04:11:04;205.20;1996.80
70593;DHT22;58294;42.988;20.338;2023-03-01T04:13:48;205.20;1996.80
70593;DHT22;58294;42.988;20.338;2023-03-01T04:16:14;205.20;2022.40
70593;DHT22;58294;42.988;20.338;2023-03-01T04:18:39;205.20;2022.40
70593;DHT22;58294;42.988;20.338;2023-03-01T04:21:05;205.20;2022.40
70593;DHT22;58294;42.988;20.338;2023-03-01T04:23:31;205.20;2022.40
70593;DHT22;58294;42.988;20.338;2023-03-01T04:25:57;205.20;2022.40
70593;DHT22;58294;42.988;20.338;2023-03-01T04:28:27;205.20;2022.40
70593;DHT22;58294;42.988;20.338;2023-03-01T04:30:53;205.20;2022.40
70593;DHT22;58294;42.988;20.338;2023-03-01T04:33:19;205.20;2022.40
70593;DHT22;58294;42.988;20.338;2023-03-01T04:35:45;205.30;2022.40
70593;DHT22;58294;42.988;20.338;2023-03-01T04:38:11;205.30;1996.80
70593;DHT22;58294;42.988;20.338;2023-03-01T04:40:37;205.30;1996.80
70593;DHT22;58294;42.988;20.338;2023-03-01T04:43:03;205.30;2022.40
70593;DHT22;58294;42.988;20.338;2023-03-01T04:45:29;205.30;1996.80
70593;DHT22;58294;42.988;20.338;2023-03-01T04:47:54;205.20;1971.20
70593;DHT22;58294;42.988;20.338;2023-03-01T04:50:20;205.20;1996.80
70593;DHT22;58294;42.988;20.338;2023-03-01T04:52:46;205.20;2022.40
70593;DHT22;58294;42.988;20.338;2023-03-01T04:55:11;205.20;1996.80
70593;DHT22;58294;42.988;20.338;2023-03-01T04:57:37;205.20;1971.20
70593;DHT22;58294;42.988;20.338;2023-03-01T05:00:04;205.20;2022.40
70593;DHT22;58294;42.988;20.338;2023-03-01T05:02:48;205.20;2022.40
70593;DHT22;58294;42.988;20.338;2023-03-01T05:05:22;205.20;2022.40
70593;DHT22;58294;42.988;20.338;2023-03-01T05:07:57;205.20;2022.40
70593;DHT22;58294;42.988;20.338;2023-03-01T05:10:23;205.20;1996.80
70593;DHT22;58294;42.988;20.338;2023-03-01T05:12:50;205.20;1996.80
70593;DHT22;58294;42.988;20.338;2023-03-01T05:15:17;205.20;1996.80
70593;DHT22;58294;42.988;20.338;2023-03-01T05:17:43;205.20;1971.20
70593;DHT22;58294;42.988;20.338;2023-03-01T05:20:09;205.20;1996.80
70593;DHT22;58294;42.988;20.338;2023-03-01T05:22:35;205.10;1996.80
70593;DHT22;58294;42.988;20.338;2023-03-01T05:25:01;205.10;1996.80
70593;DHT22;58294;42.988;20.338;2023-03-01T05:27:27;205.10;1996.80
70593;DHT22;58294;42.988;20.338;2023-03-01T05:29:52;205.00;1971.20
70593;DHT22;58294;42.988;20.338;2023-03-01T05:32:18;205.00;1996.80
70593;DHT22;58294;42.988;20.338;2023-03-01T05:34:44;205.00;1996.80
70593;DHT22;58294;42.988;20.338;2023-03-01T05:37:11;205.00;1996.80
70593;DHT22;58294;42.988;20.338;2023-03-01T05:39:37;205.10;1996.80
70593;DHT22;58294;42.988;20.338;2023-03-01T05:42:03;205.10;2022.40
70593;DHT22;58294;42.988;20.338;2023-03-01T05:44:29;205.10;2022.40
70593;DHT22;58294;42.988;20.338;2023-03-01T05:46:54;205.10;2022.40
70593;DHT22;58294;42.988;20.338;2023-03-01T05:49:20;205.10;1996.80
70593;DHT22;58294;42.988;20.338;2023-03-01T05:51:49;205.10;1996.80
70593;DHT22;58294;42.988;20.338;2023-03-01T05:54:15;205.10;2022.40
70593;DHT22;58294;42.988;20.338;2023-03-01T05:56:41;205.00;2022.40
70593;DHT22;58294;42.988;20.338;2023-03-01T05:59:06;205.00;2022.40
70593;DHT22;58294;42.988;20.338;2023-03-01T06:01:32;205.00;2048.00
70593;DHT22;58294;42.988;20.338;2023-03-01T06:03:58;205.10;2048.00
70593;DHT22;58294;42.988;20.338;2023-03-01T06:06:24;205.10;2048.00
70593;DHT22;58294;42.988;20.338;2023-03-01T06:08:49;205.20;2048.00
70593;DHT22;58294;42.988;20.338;2023-03-01T06:11:15;205.20;2048.00
70593;DHT22;58294;42.988;20.338;2023-03-01T06:13:44;205.20;2022.40
70593;DHT22;58294;42.988;20.338;2023-03-01T06:16:10;205.20;1996.80
70593;DHT22;58294;42.988;20.338;2023-03-01T06:18:36;205.10;2022.40
70593;DHT22;58294;42.988;20.338;2023-03-01T06:21:01;205.10;2022.40
70593;DHT22;58294;42.988;20.338;2023-03-01T06:23:27;205.10;2048.00
70593;DHT22;58294;42.988;20.338;2023-03-01T06:25:52;205.10;2048.00
70593;DHT22;58294;42.988;20.338;2023-03-01T06:28:18;205.20;2073.60
70593;DHT22;58294;42.988;20.338;2023-03-01T06:30:44;205.20;2048.00
70593;DHT22;58294;42.988;20.338;2023-03-01T06:33:09;205.20;2048.00
70593;DHT22;58294;42.988;20.338;2023-03-01T06:35:35;205.20;2073.60
70593;DHT22;58294;42.988;20.338;2023-03-01T06:38:01;205.30;2048.00
70593;DHT22;58294;42.988;20.338;2023-03-01T06:40:27;205.30;2048.00
70593;DHT22;58294;42.988;20.338;2023-03-01T06:42:53;205.40;2099.20
70593;DHT22;58294;42.988;20.338;2023-03-01T06:45:19;205.40;2048.00
70593;DHT22;58294;42.988;20.338;2023-03-01T06:47:45;205.40;2073.60
70593;DHT22;58294;42.988;20.338;2023-03-01T06:50:11;205.40;2048.00
70593;DHT22;58294;42.988;20.338;2023-03-01T06:52:36;205.40;2073.60
70593;DHT22;58294;42.988;20.338;2023-03-01T06:55:02;205.50;2073.60
70593;DHT22;58294;42.988;20.338;2023-03-01T06:57:28;205.50;2048.00
70593;DHT22;58294;42.988;20.338;2023-03-01T06:59:54;205.50;2048.00
70593;DHT22;58294;42.988;20.338;2023-03-01T07:02:19;205.50;2048.00
70593;DHT22;58294;42.988;20.338;2023-03-01T07:04:45;205.60;2048.00
70593;DHT22;58294;42.988;20.338;2023-03-01T07:07:11;205.60;2048.00
70593;DHT22;58294;42.988;20.338;2023-03-01T07:09:36;205.60;2073.60
70593;DHT22;58294;42.988;20.338;2023-03-01T07:12:02;205.70;2048.00
70593;DHT22;58294;42.988;20.338;2023-03-01T07:14:28;205.70;2048.00
70593;DHT22;58294;42.988;20.338;2023-03-01T07:16:53;205.70;2048.00
70593;DHT22;58294;42.988;20.338;2023-03-01T07:19:20;205.70;2048.00
70593;DHT22;58294;42.988;20.338;2023-03-01T07:21:45;230.40;2048.00
70593;DHT22;58294;42.988;20.338;2023-03-01T07:24:11;230.40;2073.60
70593;DHT22;58294;42.988;20.338;2023-03-01T07:26:37;230.50;2048.00
70593;DHT22;58294;42.988;20.338;2023-03-01T07:29:03;230.50;2022.40
70593;DHT22;58294;42.988;20.338;2023-03-01T07:31:29;230.60;1996.80
70593;DHT22;58294;42.988;20.338;2023-03-01T07:33:54;230.60;1996.80
70593;DHT22;58294;42.988;20.338;2023-03-01T07:36:20;230.60;1971.20
70593;DHT22;58294;42.988;20.338;2023-03-01T07:38:46;230.60;1971.20
70593;DHT22;58294;42.988;20.338;2023-03-01T07:41:12;230.60;1996.80
70593;DHT22;58294;42.988;20.338;2023-03-01T07:43:37;230.60;2022.40
70593;DHT22;58294;42.988;20.338;2023-03-01T07:46:03;230.60;1971.20
70593;DHT22;58294;42.988;20.338;2023-03-01T07:48:29;230.60;1996.80
70593;DHT22;58294;42.988;20.338;2023-03-01T07:50:57;230.60;1971.20
70593;DHT22;58294;42.988;20.338;2023-03-01T07:53:23;230.60;2022.40
70593;DHT22;58294;42.988;20.338;2023-03-01T07:55:48;230.60;2022.40
70593;DHT22;58294;42.988;20.338;2023-03-01T07:58:14;230.70;2048.00
70593;DHT22;58294;42.988;20.338;2023-03-01T08:00:39;230.70;2022.40
70593;DHT22;58294;42.988;20.338;2023-03-01T08:03:05;230.80;2022.40
70593;DHT22;58294;42.988;20.338;2023-03-01T08:05:31;230.80;1996.80
70593;DHT22;58294;42.988;20.338;2023-03-01T08:07:57;230.80;2022.40
70593;DHT22;58294;42.988;20.338;2023-03-01T08:10:23;230.80;2048.00
70593;DHT22;58294;42.988;20.338;2023-03-01T08:12:50;230.90;2048.00
70593;DHT22;58294;42.988;20.338;2023-03-01T08:15:16;231.00;2048.00
70593;DHT22;58294;42.988;20.338;2023-03-01T08:17:42;231.00;2073.60
70593;DHT22;58294;42.988;20.338;2023-03-01T08:20:08;231.10;2073.60
70593;DHT22;58294;42.988;20.338;2023-03-01T08:22:34;231.10;2022.40
70593;DHT22;58294;42.988;20.338;2023-03-01T08:25:00;231.20;2048.00
70593;DHT22;58294;42.988;20.338;2023-03-01T08:27:25;231.30;2048.00
70593;DHT22;58294;42.988;20.338;2023-03-01T08:29:51;256.00;2073.60
70593;DHT22;58294;42.988;20.338;2023-03-01T08:32:16;256.20;2048.00
70593;DHT22;58294;42.988;20.338;2023-03-01T08:34:42;256.30;2022.40
70593;DHT22;58294;42.988;20.338;2023-03-01T08:37:07;256.30;1996.80
70593;DHT22;58294;42.988;20.338;2023-03-01T08:39:34;256.40;2022.40
70593;DHT22;58294;42.988;20.338;2023-03-01T08:41:59;256.40;1996.80
70593;DHT22;58294;42.988;20.338;2023-03-01T08:44:25;256.50;1971.20
70593;DHT22;58294;42.988;20.338;2023-03-01T08:46:50;256.30;1945.60
70593;DHT22;58294;42.988;20.338;2023-03-01T08:49:18;256.30;1971.20
70593;DHT22;58294;42.988;20.338;2023-03-01T08:51:44;256.40;1996.80
70593;DHT22;58294;42.988;20.338;2023-03-01T08:54:11;256.50;2022.40
70593;DHT22;58294;42.988;20.338;2023-03-01T08:56:37;256.70;1971.20
70593;DHT22;58294;42.988;20.338;2023-03-01T08:59:03;256.70;1945.60
70593;DHT22;58294;42.988;20.338;2023-03-01T09:01:28;256.80;1945.60
70593;DHT22;58294;42.988;20.338;2023-03-01T09:03:54;256.70;1894.40
70593;DHT22;58294;42.988;20.338;2023-03-01T09:06:20;256.70;1920.00
70593;DHT22;58294;42.988;20.338;2023-03-01T09:08:46;256.70;1868.80
70593;DHT22;58294;42.988;20.338;2023-03-01T09:11:14;256.70;1894.40
70593;DHT22;58294;42.988;20.338;2023-03-01T09:13:41;256.70;1894.40
70593;DHT22;58294;42.988;20.338;2023-03-01T09:16:07;256.70;1945.60
70593;DHT22;58294;42.988;20.338;2023-03-01T09:18:33;256.80;1920.00
70593;DHT22;58294;42.988;20.338;2023-03-01T09:23:27;256.90;1945.60
70593;DHT22;58294;42.988;20.338;2023-03-01T09:25:53;256.90;1971.20
70593;DHT22;58294;42.988;20.338;2023-03-01T09:28:18;281.60;1971.20
70593;DHT22;58294;42.988;20.338;2023-03-01T09:30:44;281.70;1971.20
70593;DHT22;58294;42.988;20.338;2023-03-01T09:33:09;281.70;1945.60
70593;DHT22;58294;42.988;20.338;2023-03-01T09:35:40;281.70;1945.60
70593;DHT22;58294;42.988;20.338;2023-03-01T09:38:11;281.80;1920.00
70593;DHT22;58294;42.988;20.338;2023-03-01T09:40:41;281.70;1868.80
70593;DHT22;58294;42.988;20.338;2023-03-01T09:45:45;281.70;1920.00
70593;DHT22;58294;42.988;20.338;2023-03-01T09:48:21;281.80;1945.60
70593;DHT22;58294;42.988;20.338;2023-03-01T09:50:48;281.80;1945.60
70593;DHT22;58294;42.988;20.338;2023-03-01T09:53:19;281.80;1894.40
70593;DHT22;58294;42.988;20.338;2023-03-01T09:55:46;281.70;1868.80
70593;DHT22;58294;42.988;20.338;2023-03-01T10:00:43;256.90;1868.80
70593;DHT22;58294;42.988;20.338;2023-03-01T10:10:54;256.60;1868.80
70593;DHT22;58294;42.988;20.338;2023-03-01T10:13:22;256.60;1894.40
70593;DHT22;58294;42.988;20.338;2023-03-01T10:15:50;256.60;1945.60
70593;DHT22;58294;42.988;20.338;2023-03-01T10:18:21;256.80;1996.80
70593;DHT22;58294;42.988;20.338;2023-03-01T10:23:16;281.60;1996.80
70593;DHT22;58294;42.988;20.338;2023-03-01T10:28:13;281.60;1971.20
70593;DHT22;58294;42.988;20.338;2023-03-01T10:30:40;281.80;1945.60
70593;DHT22;58294;42.988;20.338;2023-03-01T10:33:31;281.70;1945.60
70593;DHT22;58294;42.988;20.338;2023-03-01T10:35:54;281.80;1996.80
70593;DHT22;58294;42.988;20.338;2023-03-01T10:38:20;281.80;1971.20
70593;DHT22;58294;42.988;20.338;2023-03-01T10:43:18;282.20;2048.00
70593;DHT22;58294;42.988;20.338;2023-03-01T10:45:44;282.30;1996.80
70593;DHT22;58294;42.988;20.338;2023-03-01T10:50:42;282.10;1996.80
70593;DHT22;58294;42.988;20.338;2023-03-01T10:55:56;307.20;2227.20
70593;DHT22;58294;42.988;20.338;2023-03-01T10:58:22;307.70;2252.80
70593;DHT22;58294;42.988;20.338;2023-03-01T11:00:58;307.90;2252.80
70593;DHT22;58294;42.988;20.338;2023-03-01T11:03:26;332.90;2304.00
70593;DHT22;58294;42.988;20.338;2023-03-01T11:06:02;333.00;2073.60
70593;DHT22;58294;42.988;20.338;2023-03-01T11:08:33;333.00;1894.40
70593;DHT22;58294;42.988;20.338;2023-03-01T11:13:50;332.90;1868.80
70593;DHT22;58294;42.988;20.338;2023-03-01T11:16:16;332.80;1868.80
70593;DHT22;58294;42.988;20.338;2023-03-01T11:18:55;308.00;1792.00
70593;DHT22;58294;42.988;20.338;2023-03-01T11:21:21;307.90;1792.00
70593;DHT22;58294;42.988;20.338;2023-03-01T11:23:46;307.80;1843.20
70593;DHT22;58294;42.988;20.338;2023-03-01T11:26:12;307.80;1868.80
70593;DHT22;58294;42.988;20.338;2023-03-01T11:28:39;307.70;1843.20
70593;DHT22;58294;42.988;20.338;2023-03-01T11:31:06;307.70;1868.80
70593;DHT22;58294;42.988;20.338;2023-03-01T11:33:35;307.70;1843.20
70593;DHT22;58294;42.988;20.338;2023-03-01T11:36:04;307.70;1894.40
70593;DHT22;58294;42.988;20.338;2023-03-01T11:38:32;307.70;1868.80
70593;DHT22;58294;42.988;20.338;2023-03-01T11:43:36;307.40;2201.60
70593;DHT22;58294;42.988;20.338;2023-03-01T11:51:05;307.30;1894.40
70593;DHT22;58294;42.988;20.338;2023-03-01T12:03:47;307.90;1920.00
70593;DHT22;58294;42.988;20.338;2023-03-01T12:14:27;308.10;1894.40
70593;DHT22;58294;42.988;20.338;2023-03-01T12:17:16;332.80;1945.60
70593;DHT22;58294;42.988;20.338;2023-03-01T12:22:16;332.80;1868.80
70593;DHT22;58294;42.988;20.338;2023-03-01T12:29:59;307.70;1817.60
70593;DHT22;58294;42.988;20.338;2023-03-01T12:50:21;307.30;1868.80
70593;DHT22;58294;42.988;20.338;2023-03-01T12:52:51;307.30;1868.80
70593;DHT22;58294;42.988;20.338;2023-03-01T13:00:38;282.40;1843.20
70593;DHT22;58294;42.988;20.338;2023-03-01T13:08:16;282.00;1894.40
70593;DHT22;58294;42.988;20.338;2023-03-01T13:10:49;282.00;1920.00
70593;DHT22;58294;42.988;20.338;2023-03-01T13:13:20;282.10;1945.60
70593;DHT22;58294;42.988;20.338;2023-03-01T13:15:45;282.10;1945.60
70593;DHT22;58294;42.988;20.338;2023-03-01T13:18:34;282.10;1945.60
70593;DHT22;58294;42.988;20.338;2023-03-01T13:20:59;282.20;1971.20
70593;DHT22;58294;42.988;20.338;2023-03-01T13:23:30;282.30;1971.20
70593;DHT22;58294;42.988;20.338;2023-03-01T13:26:04;282.30;1945.60
70593;DHT22;58294;42.988;20.338;2023-03-01T13:31:08;282.20;1920.00
70593;DHT22;58294;42.988;20.338;2023-03-01T13:33:47;282.10;1894.40
70593;DHT22;58294;42.988;20.338;2023-03-01T13:46:47;281.60;1971.20
70593;DHT22;58294;42.988;20.338;2023-03-01T13:49:18;256.90;1971.20
70593;DHT22;58294;42.988;20.338;2023-03-01T13:51:48;256.90;1971.20
70593;DHT22;58294;42.988;20.338;2023-03-01T13:54:14;256.90;1996.80
70593;DHT22;58294;42.988;20.338;2023-03-01T13:56:40;256.90;1996.80
70593;DHT22;58294;42.988;20.338;2023-03-01T13:59:13;256.90;1996.80
70593;DHT22;58294;42.988;20.338;2023-03-01T14:01:39;256.90;1996.80
70593;DHT22;58294;42.988;20.338;2023-03-01T14:06:48;256.80;1996.80
70593;DHT22;58294;42.988;20.338;2023-03-01T14:09:18;256.90;1996.80
70593;DHT22;58294;42.988;20.338;2023-03-01T14:12:01;256.90;2022.40
70593;DHT22;58294;42.988;20.338;2023-03-01T14:19:30;281.60;2022.40
70593;DHT22;58294;42.988;20.338;2023-03-01T14:24:29;256.80;2022.40
70593;DHT22;58294;42.988;20.338;2023-03-01T14:26:54;256.90;2048.00
70593;DHT22;58294;42.988;20.338;2023-03-01T14:29:27;281.60;2099.20
70593;DHT22;58294;42.988;20.338;2023-03-01T14:31:53;281.60;2048.00
70593;DHT22;58294;42.988;20.338;2023-03-01T14:34:21;281.60;2099.20
70593;DHT22;58294;42.988;20.338;2023-03-01T14:36:46;281.60;2073.60
70593;DHT22;58294;42.988;20.338;2023-03-01T14:39:16;281.60;2099.20
70593;DHT22;58294;42.988;20.338;2023-03-01T14:41:42;281.70;2099.20
70593;DHT22;58294;42.988;20.338;2023-03-01T14:44:11;281.70;2073.60
70593;DHT22;58294;42.988;20.338;2023-03-01T14:46:38;281.80;2099.20
70593;DHT22;58294;42.988;20.338;2023-03-01T14:49:09;281.80;2073.60
70593;DHT22;58294;42.988;20.338;2023-03-01T14:51:36;281.70;2022.40
70593;DHT22;58294;42.988;20.338;2023-03-01T14:54:02;281.60;2073.60
70593;DHT22;58294;42.988;20.338;2023-03-01T14:56:28;281.60;2073.60
70593;DHT22;58294;42.988;20.338;2023-03-01T14:59:08;281.60;2073.60
70593;DHT22;58294;42.988;20.338;2023-03-01T15:01:34;256.70;2048.00
70593;DHT22;58294;42.988;20.338;2023-03-01T15:04:00;256.70;2048.00
70593;DHT22;58294;42.988;20.338;2023-03-01T15:06:26;256.60;2073.60
70593;DHT22;58294;42.988;20.338;2023-03-01T15:08:53;256.50;2099.20
70593;DHT22;58294;42.988;20.338;2023-03-01T15:11:23;256.50;2099.20
70593;DHT22;58294;42.988;20.338;2023-03-01T15:13:50;256.60;2150.40
70593;DHT22;58294;42.988;20.338;2023-03-01T15:16:17;256.70;2150.40
70593;DHT22;58294;42.988;20.338;2023-03-01T15:18:45;256.80;2150.40
70593;DHT22;58294;42.988;20.338;2023-03-01T15:21:24;256.90;2176.00
70593;DHT22;58294;42.988;20.338;2023-03-01T15:24:02;281.60;2150.40
70593;DHT22;58294;42.988;20.338;2023-03-01T15:28:54;281.70;2124.80
70593;DHT22;58294;42.988;20.338;2023-03-01T15:31:52;281.80;2124.80
70593;DHT22;58294;42.988;20.338;2023-03-01T15:34:10;281.70;2073.60
70593;DHT22;58294;42.988;20.338;2023-03-01T15:39:50;281.60;2099.20
70593;DHT22;58294;42.988;20.338;2023-03-01T15:41:56;281.60;2150.40
70593;DHT22;58294;42.988;20.338;2023-03-01T15:44:26;281.60;2099.20
70593;DHT22;58294;42.988;20.338;2023-03-01T15:46:51;281.60;2124.80
70593;DHT22;58294;42.988;20.338;2023-03-01T15:49:33;281.60;2099.20
70593;DHT22;58294;42.988;20.338;2023-03-01T15:52:00;281.60;2073.60
70593;DHT22;58294;42.988;20.338;2023-03-01T15:54:25;281.60;2099.20
70593;DHT22;58294;42.988;20.338;2023-03-01T15:56:51;281.60;2073.60
70593;DHT22;58294;42.988;20.338;2023-03-01T15:59:17;281.60;2099.20
70593;DHT22;58294;42.988;20.338;2023-03-01T16:01:43;281.60;2099.20
70593;DHT22;58294;42.988;20.338;2023-03-01T16:04:13;281.60;2099.20
70593;DHT22;58294;42.988;20.338;2023-03-01T16:06:52;281.60;2073.60
70593;DHT22;58294;42.988;20.338;2023-03-01T16:09:21;281.60;2048.00
70593;DHT22;58294;42.988;20.338;2023-03-01T16:11:47;256.90;2048.00
70593;DHT22;58294;42.988;20.338;2023-03-01T16:14:13;281.60;2099.20
70593;DHT22;58294;42.988;20.338;2023-03-01T16:16:40;281.60;2073.60
70593;DHT22;58294;42.988;20.338;2023-03-01T16:19:05;281.60;2073.60
70593;DHT22;58294;42.988;20.338;2023-03-01T16:21:31;281.60;2099.20
70593;DHT22;58294;42.988;20.338;2023-03-01T16:23:56;281.60;2150.40
70593;DHT22;58294;42.988;20.338;2023-03-01T16:26:22;281.70;2124.80
70593;DHT22;58294;42.988;20.338;2023-03-01T16:28:47;281.70;2124.80
70593;DHT22;58294;42.988;20.338;2023-03-01T16:31:16;281.70;2124.80
70593;DHT22;58294;42.988;20.338;2023-03-01T16:33:41;281.70;2099.20
70593;DHT22;58294;42.988;20.338;2023-03-01T16:36:10;281.70;2124.80
70593;DHT22;58294;42.988;20.338;2023-03-01T16:38:36;281.60;2099.20
70593;DHT22;58294;42.988;20.338;2023-03-01T16:41:02;281.60;2124.80